createdAt,value
2022-09-10T00:00:00.180Z,59.30
2022-09-10T00:10:00.140Z,54.80
2022-09-10T00:20:00.157Z,80.50
2022-09-10T00:30:00.998Z,89.70
2022-09-10T00:40:00.261Z,78.10
2022-09-10T00:50:00.145Z,112.10
2022-09-10T01:00:00.217Z,100.60
2022-09-10T01:10:01.161Z,83.70
2022-09-10T01:20:00.150Z,72.30
2022-09-10T01:30:00.133Z,49.20
2022-09-10T01:40:00.265Z,84.60
2022-09-10T01:50:00.144Z,73.30
2022-09-10T02:00:00.154Z,86.50
2022-09-10T02:10:00.136Z,71.40
2022-09-10T02:20:00.136Z,76.10
2022-09-10T02:30:00.208Z,67.90
2022-09-10T02:40:00.274Z,89.00
2022-09-10T02:50:00.139Z,73.30
2022-09-10T03:00:00.152Z,107.80
2022-09-10T03:10:00.134Z,72.20
2022-09-10T03:20:00.143Z,103.60
2022-09-10T03:30:00.174Z,95.90
2022-09-10T03:40:00.249Z,90.60
2022-09-10T03:50:00.137Z,92.10
2022-09-10T04:00:00.298Z,114.80
2022-09-10T04:10:01.067Z,102.40
2022-09-10T04:20:00.189Z,76.00
2022-09-10T04:30:00.134Z,128.50
2022-09-10T04:40:00.282Z,131.90
2022-09-10T04:50:00.143Z,144.80
2022-09-10T05:00:00.201Z,156.10
2022-09-10T05:10:00.145Z,96.60
2022-09-10T05:20:00.215Z,114.70
2022-09-10T05:30:00.132Z,98.50
2022-09-10T05:40:00.247Z,116.70
2022-09-10T05:50:00.182Z,64.80
2022-09-10T06:10:00.197Z,83.00
2022-09-10T06:20:01.041Z,72.00
2022-09-10T06:30:00.174Z,109.90
2022-09-10T06:40:00.240Z,124.20
2022-09-10T06:50:00.183Z,88.60
2022-09-10T07:00:00.167Z,150.60
2022-09-10T07:10:00.171Z,127.50
2022-09-10T07:20:00.170Z,94.20
2022-09-10T07:30:00.154Z,109.70
2022-09-10T07:40:00.276Z,77.20
2022-09-10T07:50:00.151Z,97.90
2022-09-10T08:00:01.285Z,101.80
2022-09-10T08:10:00.162Z,51.10
2022-09-10T08:20:01.274Z,59.80
2022-09-10T08:30:00.123Z,54.50
2022-09-10T08:40:00.271Z,76.20
2022-09-10T08:50:00.147Z,103.40
2022-09-10T09:00:00.163Z,69.50
2022-09-10T09:10:00.189Z,71.20
2022-09-10T09:20:00.149Z,78.90
2022-09-10T09:30:00.132Z,60.20
2022-09-10T09:40:00.320Z,68.40
2022-09-10T09:50:00.140Z,81.20
2022-09-10T10:00:00.136Z,87.90
2022-09-10T10:10:00.158Z,164.50
2022-09-10T10:20:00.166Z,250.80
2022-09-10T10:30:00.174Z,362.80
2022-09-10T10:40:00.237Z,285.00
2022-09-10T10:50:00.151Z,493.70
2022-09-10T11:00:00.158Z,605.70
2022-09-10T11:10:00.131Z,714.30
2022-09-10T11:20:24.530Z,721.00
2022-09-10T11:30:00.134Z,673.70
2022-09-10T11:40:00.256Z,691.80
2022-09-10T11:50:00.123Z,668.70
2022-09-10T12:00:00.151Z,685.30
2022-09-10T12:10:00.112Z,688.50
2022-09-10T12:20:00.129Z,701.20
2022-09-10T12:30:00.971Z,713.00
2022-09-10T12:40:00.205Z,722.10
2022-09-10T12:50:00.149Z,718.50
2022-09-10T13:00:00.161Z,683.30
2022-09-10T13:10:00.175Z,684.00
2022-09-10T13:20:00.224Z,665.70
2022-09-10T13:30:00.263Z,659.70
2022-09-10T13:40:00.396Z,687.40
2022-09-10T13:50:00.231Z,614.70
2022-09-10T14:00:00.250Z,689.20
2022-09-10T14:10:00.259Z,682.50
2022-09-10T14:20:00.256Z,688.70
2022-09-10T14:30:00.250Z,623.30
2022-09-10T14:40:00.325Z,637.30
2022-09-10T14:50:02.309Z,624.10
2022-09-10T15:00:00.259Z,637.00
2022-09-10T15:10:00.153Z,649.50
2022-09-10T15:20:00.989Z,668.90
2022-09-10T15:30:00.954Z,731.20
2022-09-10T15:40:00.229Z,756.00
2022-09-10T15:50:00.170Z,694.90
2022-09-10T16:00:00.186Z,702.80
2022-09-10T16:10:04.786Z,721.50
2022-09-10T16:20:00.181Z,687.00
2022-09-10T16:30:00.126Z,655.60
2022-09-10T16:40:00.232Z,623.40
2022-09-10T16:50:00.179Z,626.20
2022-09-10T17:00:00.180Z,688.40
2022-09-10T17:10:00.970Z,711.50
2022-09-10T17:20:01.254Z,529.50
2022-09-10T17:30:00.148Z,437.60
2022-09-10T17:40:00.184Z,354.20
2022-09-10T17:50:00.132Z,258.10
2022-09-10T18:00:00.160Z,281.00
2022-09-10T18:10:00.153Z,190.70
2022-09-10T18:20:00.149Z,171.30
2022-09-10T18:30:00.141Z,99.10
2022-09-10T18:40:00.272Z,139.30
2022-09-10T18:50:00.167Z,116.00
2022-09-10T19:00:00.146Z,153.30
2022-09-10T19:10:00.173Z,151.80
2022-09-10T19:20:00.155Z,138.40
2022-09-10T19:30:00.155Z,137.40
2022-09-10T19:40:02.038Z,115.40
2022-09-10T19:50:00.158Z,105.90
2022-09-10T20:00:00.169Z,114.20
2022-09-10T20:10:00.174Z,83.30
2022-09-10T20:20:00.179Z,90.00
2022-09-10T20:30:00.185Z,107.70
2022-09-10T20:40:00.256Z,130.40
2022-09-10T20:50:00.153Z,105.90
2022-09-10T21:00:00.143Z,71.60
2022-09-10T21:10:01.209Z,53.30
2022-09-10T21:20:00.148Z,40.30
2022-09-10T21:30:00.136Z,49.30
2022-09-10T21:40:00.404Z,28.60
2022-09-10T21:50:00.158Z,53.90
2022-09-10T22:00:00.216Z,66.60
2022-09-10T22:10:00.207Z,77.80
2022-09-10T22:20:00.155Z,90.60
2022-09-10T22:30:00.148Z,153.80
2022-09-10T22:40:00.264Z,159.50
2022-09-10T22:50:00.137Z,145.90
2022-09-10T23:00:00.161Z,175.20
2022-09-10T23:10:00.140Z,181.70
2022-09-10T23:20:00.156Z,227.60
2022-09-10T23:30:00.157Z,198.50
2022-09-10T23:40:00.248Z,98.10
2022-09-10T23:50:00.109Z,82.70
